Abadi — V8V2002 — position and weather

sailwx.info

Track history (hours):
 
Tides and Currents Weather Stations Pressure Air Temp Water Temp Dewpoint Dewpoint Depression Visibility Wind Speed Wind Dir Waves Ship Positions

Abadi

Last reported at 2015-Jul-07 02:05 UTC. Time now 2015-Jul-31 17:25 UTC.
Position N 22°22' E 119°45'.
Warning: this ship's position is 24 days out of date.

Type: Ship (hazmat cat A). MMSI: 508011000.

Date/timePositionNaut miles runAvg speedWind from/ knotsBaromVisibWave heightAir tempDewpointWater temp
2015-Jul-07 02:05N 22°22' E 119°45'814.6
2015-Jul-07 01:33N 22°27' E 119°51'1514.9
2015-Jul-07 00:33N 22°40' E 119°59'1212.2
2015-Jul-06 23:33N 22°49' E 120°08'1 0.0
2015-Jul-05 23:29N 22°50' E 120°09'5 5.4
2015-Jul-05 22:32N 22°49' E 120°03'8 7.6
2015-Jul-05 21:33N 22°42' E 119°59'1010.2
2015-Jul-05 20:33N 22°33' E 119°56'1413.5
2015-Jul-05 19:31N 22°19' E 119°56'  
Track history (hours):
 
Tides and Currents Weather Stations Pressure Air Temp Water Temp Dewpoint Dewpoint Depression Visibility Wind Speed Wind Dir Waves Ship Positions

Abadi

Last reported at 2015-Jul-07 02:05 UTC. Time now 2015-Jul-31 17:25 UTC.
Position N 22°22' E 119°45'.
Warning: this ship's position is 24 days out of date.

Type: Ship (hazmat cat A). MMSI: 508011000.

Date/timePositionNaut miles runAvg speedWind from/ knotsBaromVisibWave heightAir tempDewpointWater temp
2015-Jul-07 02:05N 22°22' E 119°45'814.6
2015-Jul-07 01:33N 22°27' E 119°51'1514.9
2015-Jul-07 00:33N 22°40' E 119°59'1212.2
2015-Jul-06 23:33N 22°49' E 120°08'1 0.0
2015-Jul-05 23:29N 22°50' E 120°09'5 5.4
2015-Jul-05 22:32N 22°49' E 120°03'8 7.6
2015-Jul-05 21:33N 22°42' E 119°59'1010.2
2015-Jul-05 20:33N 22°33' E 119°56'1413.5
2015-Jul-05 19:31N 22°19' E 119°56'  

Dump ship's entire track history